createdAt,value
2023-04-14T00:01:27.017Z,1.74
2023-04-14T00:06:30.141Z,1.62
2023-04-14T00:11:34.744Z,1.69
2023-04-14T00:16:39.571Z,1.67
2023-04-14T00:21:42.729Z,1.71
2023-04-14T00:26:47.360Z,1.57
2023-04-14T00:31:50.805Z,1.53
2023-04-14T00:36:53.974Z,1.45
2023-04-14T00:41:58.646Z,1.55
2023-04-14T00:47:02.918Z,1.57
2023-04-14T00:52:07.083Z,1.61
2023-04-14T00:57:11.849Z,1.73
2023-04-14T01:02:15.593Z,1.76
2023-04-14T01:07:19.686Z,1.59
2023-04-14T01:12:35.642Z,1.76
2023-04-14T01:17:45.948Z,1.81
2023-04-14T01:22:59.660Z,1.94
2023-04-14T01:28:16.253Z,1.97
2023-04-14T01:33:25.005Z,1.89
2023-04-14T01:38:30.770Z,1.94
2023-04-14T01:43:38.533Z,1.89
2023-04-14T01:48:43.704Z,1.90
2023-04-14T01:53:49.000Z,1.93
2023-04-14T01:58:54.612Z,1.93
2023-04-14T02:04:01.154Z,1.82
2023-04-14T02:09:05.658Z,1.90
2023-04-14T02:14:10.517Z,1.88
2023-04-14T02:19:18.307Z,1.98
2023-04-14T02:24:22.990Z,2.05
2023-04-14T02:29:28.283Z,2.11
2023-04-14T02:34:38.328Z,2.20
2023-04-14T02:39:46.328Z,2.21
2023-04-14T02:44:54.001Z,2.24
2023-04-14T02:50:01.076Z,2.26
2023-04-14T02:55:06.999Z,2.27
2023-04-14T03:00:11.366Z,2.27
2023-04-14T03:05:23.204Z,2.18
2023-04-14T03:10:34.203Z,2.22
2023-04-14T03:15:40.842Z,2.34
2023-04-14T03:20:47.279Z,2.47
2023-04-14T03:25:53.208Z,2.49
2023-04-14T03:31:05.027Z,2.50
2023-04-14T03:36:21.835Z,2.46
2023-04-14T03:41:27.567Z,2.39
2023-04-14T03:46:31.278Z,2.40
2023-04-14T03:51:38.986Z,2.55
2023-04-14T03:56:45.409Z,2.46
2023-04-14T04:01:51.021Z,2.55
2023-04-14T04:06:57.439Z,2.51
2023-04-14T04:12:03.434Z,2.41
2023-04-14T04:17:09.660Z,2.48
2023-04-14T04:22:17.894Z,2.46
2023-04-14T04:27:28.095Z,2.56
2023-04-14T04:32:39.697Z,2.60
2023-04-14T04:37:46.301Z,2.55
2023-04-14T04:42:50.201Z,2.62
2023-04-14T04:47:54.213Z,2.68
2023-04-14T04:52:59.001Z,2.75
2023-04-14T04:58:02.290Z,2.88
2023-04-14T05:03:05.786Z,2.99
2023-04-14T05:08:11.029Z,3.13
2023-04-14T05:13:15.562Z,3.14
2023-04-14T05:18:18.778Z,3.24
2023-04-14T05:23:23.820Z,3.24
2023-04-14T05:28:27.916Z,3.37
2023-04-14T05:33:31.358Z,3.25
2023-04-14T05:38:38.407Z,3.66
2023-04-14T05:43:41.685Z,3.80
2023-04-14T05:48:44.831Z,3.99
2023-04-14T05:53:49.298Z,4.15
2023-04-14T05:58:55.502Z,4.17
2023-04-14T06:03:58.950Z,4.33
2023-04-14T06:09:03.727Z,4.05
2023-04-14T06:14:07.736Z,4.44
2023-04-14T06:19:10.972Z,4.48
2023-04-14T06:24:15.714Z,5.04
2023-04-14T06:29:19.085Z,5.35
2023-04-14T06:34:22.503Z,5.55
2023-04-14T06:39:27.489Z,5.75
2023-04-14T06:44:30.679Z,5.96
2023-04-14T06:49:34.934Z,6.10
2023-04-14T06:54:39.925Z,6.32
2023-04-14T06:59:43.413Z,6.39
2023-04-14T07:04:46.791Z,6.71
2023-04-14T07:09:51.993Z,6.79
2023-04-14T07:14:55.769Z,7.07
2023-04-14T07:19:59.375Z,7.48
2023-04-14T07:25:04.261Z,7.72
2023-04-14T07:30:08.715Z,8.07
2023-04-14T07:35:12.057Z,8.29
2023-04-14T07:40:17.062Z,8.62
2023-04-14T07:45:20.317Z,8.72
2023-04-14T07:50:23.695Z,8.86
2023-04-14T07:55:28.302Z,9.17
2023-04-14T08:00:31.739Z,9.23
2023-04-14T08:05:34.912Z,9.52
2023-04-14T08:10:40.626Z,9.31
2023-04-14T08:15:43.832Z,9.71
2023-04-14T08:20:48.676Z,9.78
2023-04-14T08:25:53.280Z,9.70
2023-04-14T08:30:56.588Z,10.21
2023-04-14T08:36:00.817Z,10.64
2023-04-14T08:41:09.766Z,10.84
2023-04-14T08:46:13.278Z,10.74
2023-04-14T08:51:23.480Z,10.05
2023-04-14T08:56:33.025Z,10.05
2023-04-14T09:01:37.082Z,9.31
2023-04-14T09:06:41.360Z,10.38
2023-04-14T09:11:46.307Z,10.31
2023-04-14T09:16:53.654Z,10.94
2023-04-14T09:21:57.463Z,10.66
2023-04-14T09:27:05.512Z,10.35
2023-04-14T09:32:09.395Z,9.60
2023-04-14T09:37:12.820Z,9.14
2023-04-14T09:42:18.253Z,9.46
2023-04-14T09:47:22.948Z,9.59
2023-04-14T09:52:39.304Z,9.16
2023-04-14T09:57:44.695Z,9.08
2023-04-14T10:02:52.482Z,8.73
2023-04-14T10:07:56.174Z,8.49
2023-04-14T10:13:02.282Z,8.74
2023-04-14T10:18:05.667Z,8.89
2023-04-14T10:23:09.576Z,9.21
2023-04-14T10:28:14.475Z,9.05
2023-04-14T10:33:17.997Z,9.14
2023-04-14T10:38:21.507Z,9.74
2023-04-14T10:43:29.169Z,9.92
2023-04-14T10:48:35.315Z,9.88
2023-04-14T10:53:40.165Z,10.51
2023-04-14T10:58:56.107Z,11.01
2023-04-14T11:04:18.003Z,11.10
2023-04-14T11:09:34.169Z,11.80
2023-04-14T11:14:38.876Z,11.47
2023-04-14T11:19:42.879Z,12.11
2023-04-14T11:24:47.310Z,12.19
2023-04-14T11:29:56.055Z,11.97
2023-04-14T11:35:08.722Z,12.00
2023-04-14T11:40:13.432Z,11.48
2023-04-14T11:45:18.384Z,12.23
2023-04-14T11:50:21.965Z,12.19
2023-04-14T11:55:25.435Z,12.29
2023-04-14T12:00:30.216Z,12.56
2023-04-14T12:05:35.640Z,11.80
2023-04-14T12:10:40.037Z,11.57
2023-04-14T12:15:44.961Z,12.87
2023-04-14T12:20:52.880Z,12.80
2023-04-14T12:25:56.346Z,13.14
2023-04-14T12:31:02.893Z,13.37
2023-04-14T12:36:07.892Z,13.41
2023-04-14T12:41:12.256Z,12.75
2023-04-14T12:46:25.665Z,13.37
2023-04-14T12:51:28.903Z,12.93
2023-04-14T12:56:32.025Z,12.83
2023-04-14T13:01:37.740Z,12.28
2023-04-14T13:06:41.442Z,12.05
2023-04-14T13:11:45.216Z,11.36
2023-04-14T13:16:50.223Z,9.20
2023-04-14T13:21:53.498Z,8.78
2023-04-14T13:26:57.058Z,8.46
2023-04-14T13:32:01.990Z,8.13
2023-04-14T13:37:06.208Z,8.07
2023-04-14T13:42:09.745Z,8.13
2023-04-14T13:47:14.462Z,8.52
2023-04-14T13:52:18.119Z,8.08
2023-04-14T13:57:21.936Z,8.43
2023-04-14T14:02:26.830Z,8.68
2023-04-14T14:07:30.070Z,9.10
2023-04-14T14:12:33.465Z,9.32
2023-04-14T14:17:38.139Z,9.72
2023-04-14T14:22:41.692Z,9.65
2023-04-14T14:27:45.669Z,9.87
2023-04-14T14:32:50.452Z,10.47
2023-04-14T14:37:53.829Z,10.76
2023-04-14T14:42:58.071Z,11.55
2023-04-14T14:48:02.837Z,11.26
2023-04-14T14:53:06.168Z,11.42
2023-04-14T14:58:09.921Z,11.63
2023-04-14T15:03:14.666Z,11.57
2023-04-14T15:08:18.168Z,11.40
2023-04-14T15:13:24.389Z,11.10
2023-04-14T15:18:29.029Z,11.14
2023-04-14T15:23:35.413Z,11.30
2023-04-14T15:28:39.528Z,11.02
2023-04-14T15:33:48.978Z,10.83
2023-04-14T15:38:52.332Z,11.14
2023-04-14T15:43:55.559Z,10.57
2023-04-14T15:49:00.489Z,9.85
2023-04-14T15:54:04.242Z,9.63
2023-04-14T15:59:10.751Z,10.05
2023-04-14T16:04:15.431Z,10.04
2023-04-14T16:09:18.728Z,9.81
2023-04-14T16:14:21.837Z,10.24
2023-04-14T16:19:26.594Z,10.37
2023-04-14T16:24:29.671Z,10.48
2023-04-14T16:29:32.997Z,10.62
2023-04-14T16:34:37.748Z,10.88
2023-04-14T16:39:41.407Z,10.49
2023-04-14T16:44:44.680Z,10.66
2023-04-14T16:49:50.236Z,10.33
2023-04-14T16:54:54.490Z,9.73
2023-04-14T16:59:57.777Z,9.57
2023-04-14T17:05:03.823Z,9.11
2023-04-14T17:10:08.015Z,8.64
2023-04-14T17:15:12.144Z,8.48
2023-04-14T17:20:16.876Z,8.86
2023-04-14T17:25:26.960Z,8.96
2023-04-14T17:30:34.004Z,8.99
2023-04-14T17:35:38.935Z,8.94
2023-04-14T17:40:42.373Z,8.93
2023-04-14T17:45:50.310Z,9.07
2023-04-14T17:51:09.684Z,8.95
2023-04-14T17:56:16.583Z,8.80
2023-04-14T18:01:19.869Z,8.96
2023-04-14T18:06:24.751Z,8.75
2023-04-14T18:11:28.831Z,8.95
2023-04-14T18:16:32.493Z,8.72
2023-04-14T18:21:37.445Z,8.69
2023-04-14T18:26:40.567Z,8.77
2023-04-14T18:31:43.864Z,8.71
2023-04-14T18:36:48.472Z,8.64
2023-04-14T18:41:51.694Z,8.37
2023-04-14T18:46:55.206Z,8.25
2023-04-14T18:52:02.672Z,8.26
2023-04-14T18:57:08.774Z,8.25
2023-04-14T19:02:13.778Z,7.98
2023-04-14T19:07:22.140Z,7.77
2023-04-14T19:12:29.723Z,7.61
2023-04-14T19:17:37.545Z,7.45
2023-04-14T19:22:42.215Z,7.43
2023-04-14T19:27:45.429Z,7.16
2023-04-14T19:32:48.648Z,6.90
2023-04-14T19:37:56.545Z,6.95
2023-04-14T19:43:02.938Z,6.70
2023-04-14T19:48:16.541Z,6.70
2023-04-14T19:53:28.132Z,6.47
2023-04-14T19:58:32.715Z,6.04
2023-04-14T20:03:35.953Z,6.21
2023-04-14T20:08:44.516Z,6.39
2023-04-14T20:13:49.880Z,6.45
2023-04-14T20:18:53.374Z,6.41
2023-04-14T20:24:01.192Z,6.10
2023-04-14T20:29:05.382Z,6.13
2023-04-14T20:34:08.993Z,6.31
2023-04-14T20:39:13.528Z,6.21
2023-04-14T20:44:17.076Z,6.17
2023-04-14T20:49:22.387Z,6.29
2023-04-14T20:54:30.137Z,6.26
2023-04-14T20:59:36.241Z,6.08
2023-04-14T21:04:39.398Z,6.16
2023-04-14T21:09:45.790Z,6.27
2023-04-14T21:15:41.631Z,6.33
2023-04-14T21:20:13.360Z,6.17
2023-04-14T21:25:19.501Z,6.29
2023-04-14T21:30:23.548Z,6.35
2023-04-14T21:35:26.928Z,6.19
2023-04-14T21:40:31.511Z,6.32
2023-04-14T21:45:34.831Z,6.32
2023-04-14T21:50:39.755Z,6.30
2023-04-14T21:55:44.812Z,6.08
2023-04-14T22:00:48.226Z,6.18
2023-04-14T22:05:53.340Z,6.17
2023-04-14T22:10:58.088Z,6.16
2023-04-14T22:16:01.324Z,5.88
2023-04-14T22:21:04.940Z,5.92
2023-04-14T22:26:10.178Z,5.78
2023-04-14T22:31:13.756Z,5.61
2023-04-14T22:36:17.168Z,5.45
2023-04-14T22:41:21.762Z,5.52
2023-04-14T22:46:25.263Z,5.51
2023-04-14T22:51:28.540Z,5.41
2023-04-14T22:56:33.421Z,5.39
2023-04-14T23:01:37.005Z,5.41
2023-04-14T23:06:40.252Z,5.34
2023-04-14T23:11:44.936Z,5.23
2023-04-14T23:16:48.069Z,5.13
2023-04-14T23:21:52.428Z,5.10
2023-04-14T23:26:57.760Z,5.13
2023-04-14T23:32:01.070Z,5.01
2023-04-14T23:37:04.361Z,5.05
2023-04-14T23:42:08.904Z,5.04
2023-04-14T23:47:12.305Z,4.97
2023-04-14T23:52:16.385Z,4.97
2023-04-14T23:57:21.433Z,4.98
